Main page
METAR-TAF:

METAR-TAF

Airports :

Carrasco International Airport

Montevideo, Uruguay

latitude: 34-50S, longitude: 056-00W, elevation: 32 m

Current weather observation

The report was made 35 minutes ago, at 11:00 UTC
Wind 5 kt from the North
Temperature 8°C
Humidity 81%
Pressure 1015 hPa
Visibility 10 km or more
no clouds below 1500 m and no cumulonimbus

METAR: SUMU 121100Z 35005KT CAVOK 08/05 Q1015 NOSIG

Time: 08:35 (11:35 UTC)

Forecast

The report was made 5 minutes ago, at 11:30 UTC
Forecast valid from 12 at 12 UTC to 13 at 12 UTC
Wind 10 kt from the Northwest
Visibility 10 km or more
no clouds below 1500 m and no cumulonimbus
Temporary
from 13 at 03 UTC to 13 at 10 UTC
Visibility: 3000 m
mist

TAF: SUMU 121130Z 1212/1312 31010KT CAVOK TX17/1218Z TN08/1310Z TEMPO 1303/1310 3000 BR NSC

Weather observations and forecasts of more than 4000 airports (METAR and TAF reports).

The available stations are represented by yellow and red dots on the map.

Hover mouse over dot to see the name of the station.

Then click to see weather observations and forecasts.

To change the map : click on the green buttons with a black cross to zoom in, on the green button with a dash to zoom out, or on the green arrows for adjacent maps.


METAR-TAF: